sensor_id;sensor_type;location;lat;lon;timestamp;P1;durP1;ratioP1;P2;durP2;ratioP2
37019;SDS011;22932;52.442;16.896;2022-09-16T00:00:42;2.50;;;1.00;;
37019;SDS011;22932;52.442;16.896;2022-09-16T00:03:11;1.20;;;0.60;;
37019;SDS011;22932;52.442;16.896;2022-09-16T00:05:41;1.70;;;0.80;;
37019;SDS011;22932;52.442;16.896;2022-09-16T00:08:09;1.40;;;0.90;;
37019;SDS011;22932;52.442;16.896;2022-09-16T00:10:38;4.10;;;1.00;;
37019;SDS011;22932;52.442;16.896;2022-09-16T00:13:05;2.50;;;1.00;;
37019;SDS011;22932;52.442;16.896;2022-09-16T00:15:33;1.90;;;1.10;;
37019;SDS011;22932;52.442;16.896;2022-09-16T00:18:00;2.90;;;1.00;;
37019;SDS011;22932;52.442;16.896;2022-09-16T00:20:28;3.50;;;1.00;;
37019;SDS011;22932;52.442;16.896;2022-09-16T00:22:55;1.40;;;0.80;;
37019;SDS011;22932;52.442;16.896;2022-09-16T00:25:22;1.20;;;1.00;;
37019;SDS011;22932;52.442;16.896;2022-09-16T00:27:51;1.70;;;1.10;;
37019;SDS011;22932;52.442;16.896;2022-09-16T00:30:19;2.20;;;0.80;;
37019;SDS011;22932;52.442;16.896;2022-09-16T00:32:47;2.10;;;1.00;;
37019;SDS011;22932;52.442;16.896;2022-09-16T00:35:14;1.40;;;0.70;;
37019;SDS011;22932;52.442;16.896;2022-09-16T00:37:41;1.20;;;1.00;;
37019;SDS011;22932;52.442;16.896;2022-09-16T00:40:09;1.40;;;1.10;;
37019;SDS011;22932;52.442;16.896;2022-09-16T00:42:37;2.30;;;1.00;;
37019;SDS011;22932;52.442;16.896;2022-09-16T00:45:10;1.90;;;0.80;;
37019;SDS011;22932;52.442;16.896;2022-09-16T00:47:42;3.30;;;1.00;;
37019;SDS011;22932;52.442;16.896;2022-09-16T00:50:14;2.40;;;1.10;;
37019;SDS011;22932;52.442;16.896;2022-09-16T00:52:45;1.40;;;0.80;;
37019;SDS011;22932;52.442;16.896;2022-09-16T00:55:15;1.60;;;0.80;;
37019;SDS011;22932;52.442;16.896;2022-09-16T00:57:46;2.00;;;0.90;;
37019;SDS011;22932;52.442;16.896;2022-09-16T01:00:14;1.60;;;1.10;;
37019;SDS011;22932;52.442;16.896;2022-09-16T01:02:42;1.80;;;1.00;;
37019;SDS011;22932;52.442;16.896;2022-09-16T01:05:13;3.30;;;1.00;;
37019;SDS011;22932;52.442;16.896;2022-09-16T01:07:44;3.40;;;1.00;;
37019;SDS011;22932;52.442;16.896;2022-09-16T01:10:14;1.90;;;0.80;;
37019;SDS011;22932;52.442;16.896;2022-09-16T01:12:43;2.30;;;1.10;;
37019;SDS011;22932;52.442;16.896;2022-09-16T01:15:14;2.90;;;1.30;;
37019;SDS011;22932;52.442;16.896;2022-09-16T01:17:45;1.30;;;0.80;;
37019;SDS011;22932;52.442;16.896;2022-09-16T01:20:44;1.50;;;1.20;;
37019;SDS011;22932;52.442;16.896;2022-09-16T01:29:37;1.70;;;1.10;;
37019;SDS011;22932;52.442;16.896;2022-09-16T01:32:17;1.10;;;0.90;;
37019;SDS011;22932;52.442;16.896;2022-09-16T01:34:52;2.70;;;1.20;;
37019;SDS011;22932;52.442;16.896;2022-09-16T01:37:30;2.40;;;1.00;;
37019;SDS011;22932;52.442;16.896;2022-09-16T01:40:06;1.00;;;0.90;;
37019;SDS011;22932;52.442;16.896;2022-09-16T01:42:44;1.30;;;0.90;;
37019;SDS011;22932;52.442;16.896;2022-09-16T01:45:19;1.90;;;0.90;;
37019;SDS011;22932;52.442;16.896;2022-09-16T01:47:55;1.50;;;0.90;;
37019;SDS011;22932;52.442;16.896;2022-09-16T01:50:28;1.50;;;0.90;;
37019;SDS011;22932;52.442;16.896;2022-09-16T01:53:02;1.30;;;1.20;;
37019;SDS011;22932;52.442;16.896;2022-09-16T01:55:35;3.60;;;1.00;;
37019;SDS011;22932;52.442;16.896;2022-09-16T01:58:08;3.50;;;1.30;;
37019;SDS011;22932;52.442;16.896;2022-09-16T02:00:40;2.20;;;1.00;;
37019;SDS011;22932;52.442;16.896;2022-09-16T02:03:11;3.10;;;1.40;;
37019;SDS011;22932;52.442;16.896;2022-09-16T02:05:43;2.50;;;0.90;;
37019;SDS011;22932;52.442;16.896;2022-09-16T02:08:16;1.40;;;0.90;;
37019;SDS011;22932;52.442;16.896;2022-09-16T02:10:49;1.50;;;0.90;;
37019;SDS011;22932;52.442;16.896;2022-09-16T02:13:22;1.10;;;0.90;;
37019;SDS011;22932;52.442;16.896;2022-09-16T02:15:57;1.10;;;0.90;;
37019;SDS011;22932;52.442;16.896;2022-09-16T02:18:30;3.40;;;1.00;;
37019;SDS011;22932;52.442;16.896;2022-09-16T02:21:03;1.30;;;1.10;;
37019;SDS011;22932;52.442;16.896;2022-09-16T02:23:36;1.90;;;1.10;;
37019;SDS011;22932;52.442;16.896;2022-09-16T02:26:08;1.60;;;1.10;;
37019;SDS011;22932;52.442;16.896;2022-09-16T02:28:41;2.00;;;1.00;;
37019;SDS011;22932;52.442;16.896;2022-09-16T02:31:12;3.40;;;1.30;;
37019;SDS011;22932;52.442;16.896;2022-09-16T02:33:42;1.10;;;1.00;;
37019;SDS011;22932;52.442;16.896;2022-09-16T02:36:13;2.50;;;1.60;;
37019;SDS011;22932;52.442;16.896;2022-09-16T02:38:46;1.90;;;1.00;;
37019;SDS011;22932;52.442;16.896;2022-09-16T02:41:16;2.40;;;1.00;;
37019;SDS011;22932;52.442;16.896;2022-09-16T02:43:44;3.20;;;1.40;;
37019;SDS011;22932;52.442;16.896;2022-09-16T02:46:14;3.10;;;1.00;;
37019;SDS011;22932;52.442;16.896;2022-09-16T02:48:53;1.70;;;0.90;;
37019;SDS011;22932;52.442;16.896;2022-09-16T02:51:31;1.20;;;1.00;;
37019;SDS011;22932;52.442;16.896;2022-09-16T02:54:06;1.30;;;0.90;;
37019;SDS011;22932;52.442;16.896;2022-09-16T02:56:40;1.30;;;0.90;;
37019;SDS011;22932;52.442;16.896;2022-09-16T02:59:09;3.10;;;1.10;;
37019;SDS011;22932;52.442;16.896;2022-09-16T03:01:41;2.90;;;0.90;;
37019;SDS011;22932;52.442;16.896;2022-09-16T03:04:09;4.40;;;1.40;;
37019;SDS011;22932;52.442;16.896;2022-09-16T03:06:39;1.10;;;0.80;;
37019;SDS011;22932;52.442;16.896;2022-09-16T03:09:08;3.10;;;1.20;;
37019;SDS011;22932;52.442;16.896;2022-09-16T03:11:58;2.40;;;1.20;;
37019;SDS011;22932;52.442;16.896;2022-09-16T03:14:56;1.90;;;1.00;;
37019;SDS011;22932;52.442;16.896;2022-09-16T03:17:46;3.10;;;1.10;;
37019;SDS011;22932;52.442;16.896;2022-09-16T03:20:28;2.20;;;1.30;;
37019;SDS011;22932;52.442;16.896;2022-09-16T03:23:06;11.20;;;2.50;;
37019;SDS011;22932;52.442;16.896;2022-09-16T03:25:43;3.10;;;1.00;;
37019;SDS011;22932;52.442;16.896;2022-09-16T03:28:22;2.90;;;1.40;;
37019;SDS011;22932;52.442;16.896;2022-09-16T03:30:58;1.40;;;0.90;;
37019;SDS011;22932;52.442;16.896;2022-09-16T03:33:32;2.00;;;1.30;;
37019;SDS011;22932;52.442;16.896;2022-09-16T03:36:04;2.50;;;1.30;;
37019;SDS011;22932;52.442;16.896;2022-09-16T03:38:35;5.10;;;1.30;;
37019;SDS011;22932;52.442;16.896;2022-09-16T03:41:04;3.10;;;1.50;;
37019;SDS011;22932;52.442;16.896;2022-09-16T03:43:33;2.10;;;1.40;;
37019;SDS011;22932;52.442;16.896;2022-09-16T03:46:01;3.00;;;1.40;;
37019;SDS011;22932;52.442;16.896;2022-09-16T03:48:28;2.70;;;1.40;;
37019;SDS011;22932;52.442;16.896;2022-09-16T03:50:55;3.10;;;1.30;;
37019;SDS011;22932;52.442;16.896;2022-09-16T03:53:23;1.80;;;1.60;;
37019;SDS011;22932;52.442;16.896;2022-09-16T03:55:50;2.60;;;1.60;;
37019;SDS011;22932;52.442;16.896;2022-09-16T03:58:17;2.10;;;1.40;;
37019;SDS011;22932;52.442;16.896;2022-09-16T04:00:47;2.30;;;1.50;;
37019;SDS011;22932;52.442;16.896;2022-09-16T04:03:16;2.60;;;1.70;;
37019;SDS011;22932;52.442;16.896;2022-09-16T04:05:43;5.20;;;2.10;;
37019;SDS011;22932;52.442;16.896;2022-09-16T04:08:11;2.80;;;1.70;;
37019;SDS011;22932;52.442;16.896;2022-09-16T04:10:38;1.80;;;1.30;;
37019;SDS011;22932;52.442;16.896;2022-09-16T04:13:06;4.00;;;1.70;;
37019;SDS011;22932;52.442;16.896;2022-09-16T04:15:35;2.20;;;1.50;;
37019;SDS011;22932;52.442;16.896;2022-09-16T04:18:03;3.20;;;1.90;;
37019;SDS011;22932;52.442;16.896;2022-09-16T04:20:32;4.60;;;1.90;;
37019;SDS011;22932;52.442;16.896;2022-09-16T04:23:00;3.20;;;1.90;;
37019;SDS011;22932;52.442;16.896;2022-09-16T04:25:27;3.90;;;2.30;;
37019;SDS011;22932;52.442;16.896;2022-09-16T04:27:55;3.90;;;2.00;;
37019;SDS011;22932;52.442;16.896;2022-09-16T04:30:22;2.30;;;1.80;;
37019;SDS011;22932;52.442;16.896;2022-09-16T04:32:52;3.20;;;1.80;;
37019;SDS011;22932;52.442;16.896;2022-09-16T04:35:20;3.50;;;1.80;;
37019;SDS011;22932;52.442;16.896;2022-09-16T04:37:48;3.40;;;1.60;;
37019;SDS011;22932;52.442;16.896;2022-09-16T04:40:15;7.50;;;2.40;;
37019;SDS011;22932;52.442;16.896;2022-09-16T04:42:47;5.80;;;2.60;;
37019;SDS011;22932;52.442;16.896;2022-09-16T04:45:15;5.40;;;2.10;;
37019;SDS011;22932;52.442;16.896;2022-09-16T04:47:44;2.80;;;2.00;;
37019;SDS011;22932;52.442;16.896;2022-09-16T04:50:12;4.20;;;2.40;;
37019;SDS011;22932;52.442;16.896;2022-09-16T04:52:40;6.00;;;1.90;;
37019;SDS011;22932;52.442;16.896;2022-09-16T04:55:08;4.90;;;1.90;;
37019;SDS011;22932;52.442;16.896;2022-09-16T04:57:35;7.20;;;2.00;;
37019;SDS011;22932;52.442;16.896;2022-09-16T05:00:03;4.60;;;1.60;;
37019;SDS011;22932;52.442;16.896;2022-09-16T05:02:32;2.20;;;1.70;;
37019;SDS011;22932;52.442;16.896;2022-09-16T05:04:59;3.40;;;1.60;;
37019;SDS011;22932;52.442;16.896;2022-09-16T05:07:27;2.30;;;1.80;;
37019;SDS011;22932;52.442;16.896;2022-09-16T05:09:54;2.60;;;1.60;;
37019;SDS011;22932;52.442;16.896;2022-09-16T05:12:22;3.30;;;1.60;;
37019;SDS011;22932;52.442;16.896;2022-09-16T05:14:49;6.60;;;2.10;;
37019;SDS011;22932;52.442;16.896;2022-09-16T05:17:17;2.50;;;1.70;;
37019;SDS011;22932;52.442;16.896;2022-09-16T05:19:44;3.40;;;2.00;;
37019;SDS011;22932;52.442;16.896;2022-09-16T05:22:12;6.20;;;2.10;;
37019;SDS011;22932;52.442;16.896;2022-09-16T05:24:39;4.40;;;1.80;;
37019;SDS011;22932;52.442;16.896;2022-09-16T05:27:09;6.40;;;2.30;;
37019;SDS011;22932;52.442;16.896;2022-09-16T05:29:36;5.50;;;1.70;;
37019;SDS011;22932;52.442;16.896;2022-09-16T05:32:04;2.10;;;1.70;;
37019;SDS011;22932;52.442;16.896;2022-09-16T05:34:32;2.10;;;1.90;;
37019;SDS011;22932;52.442;16.896;2022-09-16T05:37:01;2.90;;;1.70;;
37019;SDS011;22932;52.442;16.896;2022-09-16T05:39:28;4.20;;;1.60;;
37019;SDS011;22932;52.442;16.896;2022-09-16T05:41:56;3.00;;;1.70;;
37019;SDS011;22932;52.442;16.896;2022-09-16T05:44:25;5.20;;;1.50;;
37019;SDS011;22932;52.442;16.896;2022-09-16T05:46:53;1.80;;;1.40;;
37019;SDS011;22932;52.442;16.896;2022-09-16T05:49:21;3.50;;;1.60;;
37019;SDS011;22932;52.442;16.896;2022-09-16T05:51:49;4.60;;;1.50;;
37019;SDS011;22932;52.442;16.896;2022-09-16T05:54:18;3.80;;;1.70;;
37019;SDS011;22932;52.442;16.896;2022-09-16T05:56:48;3.50;;;1.50;;
37019;SDS011;22932;52.442;16.896;2022-09-16T05:59:16;4.50;;;2.10;;
37019;SDS011;22932;52.442;16.896;2022-09-16T06:01:43;3.90;;;1.70;;
37019;SDS011;22932;52.442;16.896;2022-09-16T06:04:12;5.90;;;2.20;;
37019;SDS011;22932;52.442;16.896;2022-09-16T06:06:40;3.60;;;1.30;;
37019;SDS011;22932;52.442;16.896;2022-09-16T06:09:09;2.10;;;1.50;;
37019;SDS011;22932;52.442;16.896;2022-09-16T06:11:40;8.70;;;2.40;;
37019;SDS011;22932;52.442;16.896;2022-09-16T06:14:09;7.80;;;2.20;;
37019;SDS011;22932;52.442;16.896;2022-09-16T06:16:38;4.70;;;2.10;;
37019;SDS011;22932;52.442;16.896;2022-09-16T06:19:06;6.00;;;2.00;;
37019;SDS011;22932;52.442;16.896;2022-09-16T06:21:37;4.50;;;1.70;;
37019;SDS011;22932;52.442;16.896;2022-09-16T06:24:06;5.70;;;2.40;;
37019;SDS011;22932;52.442;16.896;2022-09-16T06:26:33;7.10;;;2.10;;
37019;SDS011;22932;52.442;16.896;2022-09-16T06:29:02;3.50;;;2.00;;
37019;SDS011;22932;52.442;16.896;2022-09-16T06:31:31;6.00;;;2.50;;
37019;SDS011;22932;52.442;16.896;2022-09-16T06:33:59;4.10;;;2.60;;
37019;SDS011;22932;52.442;16.896;2022-09-16T06:36:26;7.30;;;3.10;;
37019;SDS011;22932;52.442;16.896;2022-09-16T06:38:55;6.10;;;2.40;;
37019;SDS011;22932;52.442;16.896;2022-09-16T06:41:23;9.60;;;3.40;;
37019;SDS011;22932;52.442;16.896;2022-09-16T06:43:51;8.10;;;3.80;;
37019;SDS011;22932;52.442;16.896;2022-09-16T06:46:19;7.00;;;3.20;;
37019;SDS011;22932;52.442;16.896;2022-09-16T06:48:49;8.00;;;3.50;;
37019;SDS011;22932;52.442;16.896;2022-09-16T06:51:18;4.20;;;2.40;;
37019;SDS011;22932;52.442;16.896;2022-09-16T06:53:47;8.80;;;2.90;;
37019;SDS011;22932;52.442;16.896;2022-09-16T06:56:16;8.00;;;2.70;;
37019;SDS011;22932;52.442;16.896;2022-09-16T06:58:45;5.30;;;2.30;;
37019;SDS011;22932;52.442;16.896;2022-09-16T07:01:14;4.00;;;2.50;;
37019;SDS011;22932;52.442;16.896;2022-09-16T07:03:43;3.50;;;2.30;;
37019;SDS011;22932;52.442;16.896;2022-09-16T07:06:12;5.20;;;3.10;;
37019;SDS011;22932;52.442;16.896;2022-09-16T07:08:40;9.00;;;2.80;;
37019;SDS011;22932;52.442;16.896;2022-09-16T07:11:10;5.70;;;2.80;;
37019;SDS011;22932;52.442;16.896;2022-09-16T07:13:38;5.60;;;3.10;;
37019;SDS011;22932;52.442;16.896;2022-09-16T07:16:07;4.40;;;2.30;;
37019;SDS011;22932;52.442;16.896;2022-09-16T07:18:36;5.90;;;2.60;;
37019;SDS011;22932;52.442;16.896;2022-09-16T07:21:04;6.30;;;2.50;;
37019;SDS011;22932;52.442;16.896;2022-09-16T07:23:35;7.30;;;2.20;;
37019;SDS011;22932;52.442;16.896;2022-09-16T07:26:04;7.70;;;2.30;;
37019;SDS011;22932;52.442;16.896;2022-09-16T07:28:34;4.90;;;2.20;;
37019;SDS011;22932;52.442;16.896;2022-09-16T07:31:03;7.80;;;2.20;;
37019;SDS011;22932;52.442;16.896;2022-09-16T07:33:34;6.10;;;2.10;;
37019;SDS011;22932;52.442;16.896;2022-09-16T07:36:03;9.90;;;1.70;;
37019;SDS011;22932;52.442;16.896;2022-09-16T07:38:31;5.70;;;2.00;;
37019;SDS011;22932;52.442;16.896;2022-09-16T07:41:03;9.10;;;1.60;;
37019;SDS011;22932;52.442;16.896;2022-09-16T07:43:31;7.80;;;1.80;;
37019;SDS011;22932;52.442;16.896;2022-09-16T07:45:59;4.80;;;1.40;;
37019;SDS011;22932;52.442;16.896;2022-09-16T07:48:28;5.70;;;1.30;;
37019;SDS011;22932;52.442;16.896;2022-09-16T07:50:56;3.90;;;1.10;;
37019;SDS011;22932;52.442;16.896;2022-09-16T07:53:25;3.80;;;1.20;;
37019;SDS011;22932;52.442;16.896;2022-09-16T07:55:54;5.70;;;1.40;;
37019;SDS011;22932;52.442;16.896;2022-09-16T07:58:26;5.30;;;1.70;;
37019;SDS011;22932;52.442;16.896;2022-09-16T08:00:53;8.10;;;1.60;;
37019;SDS011;22932;52.442;16.896;2022-09-16T08:03:20;3.60;;;1.40;;
37019;SDS011;22932;52.442;16.896;2022-09-16T08:05:48;5.70;;;1.50;;
37019;SDS011;22932;52.442;16.896;2022-09-16T08:08:16;8.20;;;1.60;;
37019;SDS011;22932;52.442;16.896;2022-09-16T08:10:43;7.30;;;1.60;;
37019;SDS011;22932;52.442;16.896;2022-09-16T08:13:19;5.30;;;1.90;;
37019;SDS011;22932;52.442;16.896;2022-09-16T08:15:47;4.30;;;1.00;;
37019;SDS011;22932;52.442;16.896;2022-09-16T08:18:14;4.10;;;1.30;;
37019;SDS011;22932;52.442;16.896;2022-09-16T08:20:42;3.80;;;1.00;;
37019;SDS011;22932;52.442;16.896;2022-09-16T08:23:10;2.90;;;1.10;;
37019;SDS011;22932;52.442;16.896;2022-09-16T08:25:39;7.00;;;3.80;;
37019;SDS011;22932;52.442;16.896;2022-09-16T08:28:11;3.50;;;1.00;;
37019;SDS011;22932;52.442;16.896;2022-09-16T08:30:39;2.00;;;1.20;;
37019;SDS011;22932;52.442;16.896;2022-09-16T08:33:07;2.20;;;1.00;;
37019;SDS011;22932;52.442;16.896;2022-09-16T08:35:35;3.80;;;1.30;;
37019;SDS011;22932;52.442;16.896;2022-09-16T08:38:03;3.20;;;1.00;;
37019;SDS011;22932;52.442;16.896;2022-09-16T08:40:33;7.30;;;1.60;;
37019;SDS011;22932;52.442;16.896;2022-09-16T08:43:03;7.30;;;1.50;;
37019;SDS011;22932;52.442;16.896;2022-09-16T08:45:40;4.80;;;2.00;;
37019;SDS011;22932;52.442;16.896;2022-09-16T08:48:20;5.10;;;1.30;;
37019;SDS011;22932;52.442;16.896;2022-09-16T08:50:55;8.60;;;2.00;;
37019;SDS011;22932;52.442;16.896;2022-09-16T08:53:29;4.50;;;1.20;;
37019;SDS011;22932;52.442;16.896;2022-09-16T08:56:02;10.30;;;1.80;;
37019;SDS011;22932;52.442;16.896;2022-09-16T08:58:37;11.20;;;2.40;;
37019;SDS011;22932;52.442;16.896;2022-09-16T09:01:11;3.90;;;1.60;;
37019;SDS011;22932;52.442;16.896;2022-09-16T09:03:44;5.30;;;1.50;;
37019;SDS011;22932;52.442;16.896;2022-09-16T09:06:15;1.60;;;0.90;;
37019;SDS011;22932;52.442;16.896;2022-09-16T09:08:57;4.90;;;1.40;;
37019;SDS011;22932;52.442;16.896;2022-09-16T09:11:36;3.40;;;1.40;;
37019;SDS011;22932;52.442;16.896;2022-09-16T09:14:20;3.80;;;1.20;;
37019;SDS011;22932;52.442;16.896;2022-09-16T09:16:59;6.70;;;1.60;;
37019;SDS011;22932;52.442;16.896;2022-09-16T09:19:39;7.40;;;1.50;;
37019;SDS011;22932;52.442;16.896;2022-09-16T09:22:20;3.90;;;1.20;;
37019;SDS011;22932;52.442;16.896;2022-09-16T09:25:19;4.70;;;1.10;;
37019;SDS011;22932;52.442;16.896;2022-09-16T09:27:58;7.50;;;1.10;;
37019;SDS011;22932;52.442;16.896;2022-09-16T09:30:41;5.70;;;1.20;;
37019;SDS011;22932;52.442;16.896;2022-09-16T09:33:16;6.60;;;1.70;;
37019;SDS011;22932;52.442;16.896;2022-09-16T09:36:10;3.20;;;1.30;;
37019;SDS011;22932;52.442;16.896;2022-09-16T09:38:58;2.80;;;1.70;;
37019;SDS011;22932;52.442;16.896;2022-09-16T09:41:40;5.20;;;1.80;;
37019;SDS011;22932;52.442;16.896;2022-09-16T09:44:21;5.50;;;1.50;;
37019;SDS011;22932;52.442;16.896;2022-09-16T09:46:59;5.50;;;2.00;;
37019;SDS011;22932;52.442;16.896;2022-09-16T09:49:31;7.80;;;1.40;;
37019;SDS011;22932;52.442;16.896;2022-09-16T09:52:04;4.30;;;1.40;;
37019;SDS011;22932;52.442;16.896;2022-09-16T09:54:39;5.70;;;1.30;;
37019;SDS011;22932;52.442;16.896;2022-09-16T09:57:15;3.40;;;1.50;;
37019;SDS011;22932;52.442;16.896;2022-09-16T09:59:51;4.90;;;1.30;;
37019;SDS011;22932;52.442;16.896;2022-09-16T10:02:26;5.50;;;1.10;;
37019;SDS011;22932;52.442;16.896;2022-09-16T10:04:53;3.60;;;1.10;;
37019;SDS011;22932;52.442;16.896;2022-09-16T10:07:21;3.90;;;1.10;;
37019;SDS011;22932;52.442;16.896;2022-09-16T10:12:27;2.20;;;0.90;;
37019;SDS011;22932;52.442;16.896;2022-09-16T10:36:40;2.60;;;0.70;;
37019;SDS011;22932;52.442;16.896;2022-09-16T10:39:19;1.40;;;0.70;;
37019;SDS011;22932;52.442;16.896;2022-09-16T10:41:49;1.50;;;0.90;;
37019;SDS011;22932;52.442;16.896;2022-09-16T10:44:19;2.20;;;0.50;;
37019;SDS011;22932;52.442;16.896;2022-09-16T10:46:51;5.00;;;0.80;;
37019;SDS011;22932;52.442;16.896;2022-09-16T10:49:21;7.20;;;1.30;;
37019;SDS011;22932;52.442;16.896;2022-09-16T10:51:53;3.20;;;0.80;;
37019;SDS011;22932;52.442;16.896;2022-09-16T10:54:23;6.50;;;0.90;;
37019;SDS011;22932;52.442;16.896;2022-09-16T10:56:53;1.80;;;0.50;;
37019;SDS011;22932;52.442;16.896;2022-09-16T10:59:20;1.40;;;0.60;;
37019;SDS011;22932;52.442;16.896;2022-09-16T11:01:50;2.70;;;0.80;;
37019;SDS011;22932;52.442;16.896;2022-09-16T11:04:39;1.40;;;0.70;;
37019;SDS011;22932;52.442;16.896;2022-09-16T11:07:19;2.00;;;0.80;;
37019;SDS011;22932;52.442;16.896;2022-09-16T11:09:58;1.30;;;0.70;;
37019;SDS011;22932;52.442;16.896;2022-09-16T11:12:41;0.80;;;0.50;;
37019;SDS011;22932;52.442;16.896;2022-09-16T11:15:26;7.80;;;1.40;;
37019;SDS011;22932;52.442;16.896;2022-09-16T11:18:11;2.80;;;0.50;;
37019;SDS011;22932;52.442;16.896;2022-09-16T11:20:54;6.70;;;1.00;;
37019;SDS011;22932;52.442;16.896;2022-09-16T11:23:41;1.50;;;0.50;;
37019;SDS011;22932;52.442;16.896;2022-09-16T11:26:19;4.10;;;1.00;;
37019;SDS011;22932;52.442;16.896;2022-09-16T11:29:03;3.80;;;0.80;;
37019;SDS011;22932;52.442;16.896;2022-09-16T11:31:42;1.90;;;0.50;;
37019;SDS011;22932;52.442;16.896;2022-09-16T11:34:22;1.80;;;0.70;;
37019;SDS011;22932;52.442;16.896;2022-09-16T11:37:03;2.20;;;0.70;;
37019;SDS011;22932;52.442;16.896;2022-09-16T11:42:31;3.30;;;0.90;;
37019;SDS011;22932;52.442;16.896;2022-09-16T11:45:04;3.60;;;0.80;;
37019;SDS011;22932;52.442;16.896;2022-09-16T11:47:46;5.40;;;0.80;;
37019;SDS011;22932;52.442;16.896;2022-09-16T11:50:25;3.40;;;0.80;;
37019;SDS011;22932;52.442;16.896;2022-09-16T11:53:16;6.60;;;1.10;;
37019;SDS011;22932;52.442;16.896;2022-09-16T11:56:03;2.00;;;0.70;;
37019;SDS011;22932;52.442;16.896;2022-09-16T11:58:35;1.50;;;0.50;;
37019;SDS011;22932;52.442;16.896;2022-09-16T12:01:10;1.30;;;0.50;;
37019;SDS011;22932;52.442;16.896;2022-09-16T12:03:45;2.50;;;0.60;;
37019;SDS011;22932;52.442;16.896;2022-09-16T12:06:18;4.20;;;0.60;;
37019;SDS011;22932;52.442;16.896;2022-09-16T12:08:53;3.20;;;0.70;;
37019;SDS011;22932;52.442;16.896;2022-09-16T12:11:23;1.20;;;0.50;;
37019;SDS011;22932;52.442;16.896;2022-09-16T12:13:59;2.90;;;0.70;;
37019;SDS011;22932;52.442;16.896;2022-09-16T12:16:35;1.60;;;0.50;;
37019;SDS011;22932;52.442;16.896;2022-09-16T12:19:09;2.00;;;0.50;;
37019;SDS011;22932;52.442;16.896;2022-09-16T12:21:50;3.20;;;0.60;;
37019;SDS011;22932;52.442;16.896;2022-09-16T12:24:23;0.50;;;0.30;;
37019;SDS011;22932;52.442;16.896;2022-09-16T12:27:00;0.60;;;0.30;;
37019;SDS011;22932;52.442;16.896;2022-09-16T12:29:32;3.00;;;0.40;;
37019;SDS011;22932;52.442;16.896;2022-09-16T12:32:10;5.00;;;0.80;;
37019;SDS011;22932;52.442;16.896;2022-09-16T12:34:41;1.70;;;0.60;;
37019;SDS011;22932;52.442;16.896;2022-09-16T12:37:28;0.60;;;0.40;;
37019;SDS011;22932;52.442;16.896;2022-09-16T12:40:02;1.50;;;0.50;;
37019;SDS011;22932;52.442;16.896;2022-09-16T12:42:44;6.20;;;1.20;;
37019;SDS011;22932;52.442;16.896;2022-09-16T12:48:54;2.00;;;0.80;;
37019;SDS011;22932;52.442;16.896;2022-09-16T12:54:33;1.50;;;0.50;;
37019;SDS011;22932;52.442;16.896;2022-09-16T12:57:22;1.60;;;0.70;;
37019;SDS011;22932;52.442;16.896;2022-09-16T13:00:04;2.30;;;0.60;;
37019;SDS011;22932;52.442;16.896;2022-09-16T13:02:39;0.70;;;0.50;;
37019;SDS011;22932;52.442;16.896;2022-09-16T13:05:12;0.80;;;0.40;;
37019;SDS011;22932;52.442;16.896;2022-09-16T13:07:46;3.40;;;0.50;;
37019;SDS011;22932;52.442;16.896;2022-09-16T13:10:18;0.80;;;0.50;;
37019;SDS011;22932;52.442;16.896;2022-09-16T13:12:49;1.00;;;0.50;;
37019;SDS011;22932;52.442;16.896;2022-09-16T13:15:23;2.80;;;0.70;;
37019;SDS011;22932;52.442;16.896;2022-09-16T13:17:53;0.70;;;0.40;;
37019;SDS011;22932;52.442;16.896;2022-09-16T13:20:22;1.80;;;0.60;;
37019;SDS011;22932;52.442;16.896;2022-09-16T13:23:01;0.90;;;0.40;;
37019;SDS011;22932;52.442;16.896;2022-09-16T13:25:34;1.00;;;0.50;;
37019;SDS011;22932;52.442;16.896;2022-09-16T13:28:23;0.40;;;0.30;;
37019;SDS011;22932;52.442;16.896;2022-09-16T13:31:08;1.90;;;0.50;;
37019;SDS011;22932;52.442;16.896;2022-09-16T13:33:43;2.60;;;0.50;;
37019;SDS011;22932;52.442;16.896;2022-09-16T13:36:15;2.50;;;0.50;;
37019;SDS011;22932;52.442;16.896;2022-09-16T13:38:55;1.40;;;0.40;;
37019;SDS011;22932;52.442;16.896;2022-09-16T13:41:31;0.80;;;0.30;;
37019;SDS011;22932;52.442;16.896;2022-09-16T13:44:02;1.20;;;0.30;;
37019;SDS011;22932;52.442;16.896;2022-09-16T13:46:51;1.50;;;0.30;;
37019;SDS011;22932;52.442;16.896;2022-09-16T13:49:19;3.60;;;0.40;;
37019;SDS011;22932;52.442;16.896;2022-09-16T13:51:50;1.60;;;0.90;;
37019;SDS011;22932;52.442;16.896;2022-09-16T13:54:19;0.90;;;0.30;;
37019;SDS011;22932;52.442;16.896;2022-09-16T13:56:54;1.00;;;0.40;;
37019;SDS011;22932;52.442;16.896;2022-09-16T13:59:36;6.00;;;1.10;;
37019;SDS011;22932;52.442;16.896;2022-09-16T14:02:14;9.30;;;1.00;;
37019;SDS011;22932;52.442;16.896;2022-09-16T14:04:55;3.10;;;1.00;;
37019;SDS011;22932;52.442;16.896;2022-09-16T14:07:37;2.90;;;0.80;;
37019;SDS011;22932;52.442;16.896;2022-09-16T14:10:12;5.20;;;0.70;;
37019;SDS011;22932;52.442;16.896;2022-09-16T14:12:47;6.90;;;0.60;;
37019;SDS011;22932;52.442;16.896;2022-09-16T14:15:21;0.90;;;0.50;;
37019;SDS011;22932;52.442;16.896;2022-09-16T14:17:50;3.70;;;0.50;;
37019;SDS011;22932;52.442;16.896;2022-09-16T14:20:21;2.30;;;0.80;;
37019;SDS011;22932;52.442;16.896;2022-09-16T14:22:59;4.90;;;0.60;;
37019;SDS011;22932;52.442;16.896;2022-09-16T14:25:29;3.00;;;0.50;;
37019;SDS011;22932;52.442;16.896;2022-09-16T14:28:06;2.80;;;0.70;;
37019;SDS011;22932;52.442;16.896;2022-09-16T14:30:44;1.70;;;0.50;;
37019;SDS011;22932;52.442;16.896;2022-09-16T14:33:13;3.60;;;0.60;;
37019;SDS011;22932;52.442;16.896;2022-09-16T14:35:43;4.80;;;0.50;;
37019;SDS011;22932;52.442;16.896;2022-09-16T14:38:13;2.40;;;0.70;;
37019;SDS011;22932;52.442;16.896;2022-09-16T14:40:44;1.20;;;0.70;;
37019;SDS011;22932;52.442;16.896;2022-09-16T14:43:13;1.60;;;0.50;;
37019;SDS011;22932;52.442;16.896;2022-09-16T14:45:45;1.50;;;0.60;;
37019;SDS011;22932;52.442;16.896;2022-09-16T14:48:24;4.70;;;0.50;;
37019;SDS011;22932;52.442;16.896;2022-09-16T14:50:54;0.70;;;0.40;;
37019;SDS011;22932;52.442;16.896;2022-09-16T14:53:24;2.60;;;0.90;;
37019;SDS011;22932;52.442;16.896;2022-09-16T14:55:53;1.30;;;0.60;;
37019;SDS011;22932;52.442;16.896;2022-09-16T14:58:22;1.10;;;0.60;;
37019;SDS011;22932;52.442;16.896;2022-09-16T15:00:52;1.80;;;0.50;;
37019;SDS011;22932;52.442;16.896;2022-09-16T15:03:25;1.80;;;0.50;;
37019;SDS011;22932;52.442;16.896;2022-09-16T15:05:57;2.40;;;0.70;;
37019;SDS011;22932;52.442;16.896;2022-09-16T15:08:31;1.50;;;0.90;;
37019;SDS011;22932;52.442;16.896;2022-09-16T15:11:03;1.40;;;0.70;;
37019;SDS011;22932;52.442;16.896;2022-09-16T15:13:37;1.00;;;0.60;;
37019;SDS011;22932;52.442;16.896;2022-09-16T15:16:09;2.50;;;0.70;;
37019;SDS011;22932;52.442;16.896;2022-09-16T15:18:39;1.70;;;0.50;;
37019;SDS011;22932;52.442;16.896;2022-09-16T15:21:11;1.20;;;0.40;;
37019;SDS011;22932;52.442;16.896;2022-09-16T15:23:46;1.20;;;0.70;;
37019;SDS011;22932;52.442;16.896;2022-09-16T15:28:53;3.00;;;0.80;;
37019;SDS011;22932;52.442;16.896;2022-09-16T15:31:26;1.60;;;0.80;;
37019;SDS011;22932;52.442;16.896;2022-09-16T15:33:57;1.40;;;0.60;;
37019;SDS011;22932;52.442;16.896;2022-09-16T15:36:33;2.40;;;0.70;;
37019;SDS011;22932;52.442;16.896;2022-09-16T15:39:19;3.90;;;0.90;;
37019;SDS011;22932;52.442;16.896;2022-09-16T15:41:48;5.20;;;0.90;;
37019;SDS011;22932;52.442;16.896;2022-09-16T15:44:28;3.00;;;0.60;;
37019;SDS011;22932;52.442;16.896;2022-09-16T15:46:56;4.20;;;0.90;;